Time;durP1;ratioP1;P1;durP2;ratioP2;P2;SDS_P1;SDS_P2;PMS_P1;PMS_P2;Temp;Humidity;BMP_temperature;BMP_pressure;BME280_temperature;BME280_humidity;BME280_pressure;Samples;Min_cycle;Max_cycle;Signal;HPM_P1;HPM_P2
2023/03/02 00:02:39;;;;;;;;;;;;;;;;;;;;;
2023/03/02 00:05:36;;;;;;;9.40;5.50;;;;;;;1.72;62.81;101103.56;107930;1256;60707;-63
2023/03/02 00:08:34;;;;;;;10.30;5.70;;;;;;;1.75;62.78;101108.50;107978;1260;74119;-63
2023/03/02 00:11:37;;;;;;;9.40;5.20;;;;;;;1.77;62.74;101108.73;107940;1257;71974;-63
2023/03/02 00:14:32;;;;;;;9.30;5.10;;;;;;;1.81;62.79;101107.15;107921;1256;72484;-64
2023/03/02 00:17:31;;;;;;;12.00;5.80;;;;;;;1.89;62.88;101105.44;107924;1257;60295;-64
2023/03/02 00:20:09;;;;;;;11.60;6.20;;;;;;;1.94;62.87;101100.41;107933;1256;60594;-63
2023/03/02 00:22:56;;;;;;;14.60;6.10;;;;;;;1.96;62.92;101101.39;107914;1256;74273;-65
2023/03/02 00:25:45;;;;;;;11.70;5.80;;;;;;;1.97;62.92;101096.20;107941;1257;73528;-65
2023/03/02 00:28:37;;;;;;;11.10;5.80;;;;;;;1.94;62.96;101089.34;107933;1257;71840;-63
2023/03/02 00:31:41;;;;;;;;;;;;;;;;;;;;;
2023/03/02 00:34:42;;;;;;;12.30;5.00;;;;;;;1.85;63.11;101092.32;107941;1256;60399;-62
2023/03/02 00:37:35;;;;;;;12.60;5.40;;;;;;;1.81;63.25;101087.98;107939;1256;74101;-63
2023/03/02 00:40:25;;;;;;;11.30;5.20;;;;;;;1.79;63.56;101083.99;107935;1256;73963;-63
2023/03/02 00:43:21;;;;;;;11.00;5.50;;;;;;;1.75;63.70;101078.91;107928;1256;73679;-63
2023/03/02 00:46:41;;;;;;;11.50;5.50;;;;;;;1.72;63.89;101077.23;108015;1255;60485;-63
2023/03/02 00:49:41;;;;;;;11.60;4.90;;;;;;;1.75;63.69;101083.75;108000;1255;60350;-64
2023/03/02 00:52:49;;;;;;;11.20;5.30;;;;;;;1.75;63.84;101078.29;107942;1257;72562;-63
2023/03/02 00:55:39;;;;;;;11.60;4.80;;;;;;;1.75;63.82;101071.11;107993;1256;72501;-64
2023/03/02 00:58:20;;;;;;;11.50;4.70;;;;;;;1.76;63.78;101069.73;108016;1257;72296;-63
2023/03/02 01:01:06;;;;;;;9.70;4.60;;;;;;;1.74;63.80;101069.63;107978;1257;61169;-63
2023/03/02 01:04:08;;;;;;;;;;;;;;;1.73;63.88;101071.69;108002;1257;60982;-63
2023/03/02 01:07:05;;;;;;;12.30;5.00;;;;;;;1.74;63.77;101077.08;108019;1257;73101;-64
2023/03/02 01:09:56;;;;;;;10.10;4.80;;;;;;;1.73;64.04;101078.58;108045;1255;73264;-64
2023/03/02 01:13:07;;;;;;;12.10;5.20;;;;;;;1.72;64.04;101076.45;107917;1259;72228;-63
2023/03/02 01:16:04;;;;;;;9.20;4.70;;;;;;;1.70;64.01;101072.55;108037;1257;60821;-63
2023/03/02 01:18:58;;;;;;;13.30;6.10;;;;;;;1.68;64.02;101075.84;107906;1255;60515;-63
2023/03/02 01:21:51;;;;;;;10.70;5.30;;;;;;;1.68;64.15;101069.29;108048;1256;75050;-63
2023/03/02 01:25:08;;;;;;;12.30;5.70;;;;;;;1.67;64.07;101070.27;107963;1257;71427;-63
2023/03/02 01:28:10;;;;;;;12.60;6.10;;;;;;;1.64;64.20;101071.91;107909;1259;73184;-64
2023/03/02 01:30:55;;;;;;;13.10;5.90;;;;;;;1.62;64.21;101070.56;107938;1256;60288;-63
2023/03/02 01:33:46;;;;;;;;;;;;;;;1.61;64.21;101065.07;107950;1256;60312;-63
2023/03/02 01:37:03;;;;;;;8.40;5.10;;;;;;;1.58;64.19;101057.11;107999;1256;73232;-63
2023/03/02 01:40:05;;;;;;;9.40;5.30;;;;;;;1.53;64.25;101060.61;107963;1257;72674;-63
2023/03/02 01:43:19;;;;;;;11.10;5.80;;;;;;;1.48;64.35;101053.86;107912;1257;73503;-63
2023/03/02 01:46:34;;;;;;;10.20;5.10;;;;;;;1.42;64.51;101052.05;107871;1257;60357;-63
2023/03/02 01:49:37;;;;;;;11.50;5.40;;;;;;;1.37;64.45;101050.12;108024;1257;60580;-63
2023/03/02 01:53:13;;;;;;;9.40;4.50;;;;;;;1.31;64.41;101047.30;107909;1257;72827;-63
2023/03/02 01:56:57;;;;;;;13.20;4.80;;;;;;;1.93;63.21;101036.93;107967;1257;71777;-64
2023/03/02 01:59:58;;;;;;;12.30;5.20;;;;;;;1.33;64.03;101042.07;107909;1259;72163;-62
2023/03/02 02:12:21;;;;;;;12.10;5.20;;;;;;;1.18;64.52;101046.70;107752;1256;72451;-63
2023/03/02 02:14:50;;;;;;;10.20;5.20;;;;;;;1.17;64.57;101045.63;107805;1257;72981;-63
2023/03/02 02:17:27;;;;;;;12.10;5.30;;;;;;;1.16;64.53;101046.27;107999;1257;73874;-63
2023/03/02 02:20:15;;;;;;;11.10;5.40;;;;;;;1.14;64.73;101047.66;108015;1256;59805;-63
2023/03/02 02:23:10;;;;;;;13.10;4.70;;;;;;;1.15;64.52;101044.64;108081;1257;60275;-63
2023/03/02 02:26:16;;;;;;;9.30;4.60;;;;;;;1.15;64.65;101045.81;108025;1257;73031;-63
2023/03/02 02:28:56;;;;;;;10.60;5.00;;;;;;;1.14;64.58;101047.52;108040;1257;72872;-63
2023/03/02 02:31:51;;;;;;;11.40;5.20;;;;;;;1.13;64.44;101051.50;108099;1257;71600;-64
2023/03/02 02:34:41;;;;;;;10.30;4.90;;;;;;;1.12;64.58;101046.75;107968;1259;62217;-63
2023/03/02 02:37:44;;;;;;;8.40;4.60;;;;;;;1.13;64.57;101048.91;107878;1255;61212;-63
2023/03/02 02:40:16;;;;;;;9.70;4.90;;;;;;;1.10;64.44;101050.33;108030;1258;73930;-63
2023/03/02 02:42:47;;;;;;;11.20;5.00;;;;;;;1.07;64.65;101053.48;107956;1256;73898;-63
2023/03/02 02:45:24;;;;;;;10.10;4.40;;;;;;;1.07;64.56;101052.95;108074;1256;72846;-63
2023/03/02 02:47:54;;;;;;;8.60;4.30;;;;;;;1.08;64.74;101049.84;107839;1257;60831;-63
2023/03/02 02:50:30;;;;;;;10.40;5.00;;;;;;;1.08;64.61;101046.15;108066;1259;60331;-64
2023/03/02 02:53:01;;;;;;;11.40;5.00;;;;;;;1.06;64.49;101043.59;107676;1257;74087;-63
2023/03/02 02:55:30;;;;;;;10.10;4.70;;;;;;;1.03;64.67;101041.61;107971;1257;72082;-64
2023/03/02 02:58:00;;;;;;;11.60;4.90;;;;;;;1.01;64.56;101041.88;108055;1255;72901;-63
2023/03/02 03:00:29;;;;;;;11.50;5.00;;;;;;;1.01;64.74;101044.73;107967;1260;60721;-64
2023/03/02 03:03:04;;;;;;;10.50;5.10;;;;;;;1.01;64.83;101045.39;108068;1257;60598;-64
2023/03/02 03:05:32;;;;;;;12.60;5.40;;;;;;;0.99;64.64;101047.42;108049;1259;74932;-65
2023/03/02 03:08:08;;;;;;;10.10;4.80;;;;;;;0.97;64.66;101048.48;108073;1258;71966;-64
2023/03/02 03:10:38;;;;;;;8.90;5.20;;;;;;;0.98;64.80;101048.08;107941;1257;70343;-63
2023/03/02 03:13:08;;;;;;;16.00;5.50;;;;;;;1.59;63.64;101046.05;108058;1256;60592;-63
2023/03/02 03:15:38;;;;;;;12.80;4.90;;;;;;;1.81;62.99;101046.45;107999;1257;60440;-62
2023/03/02 03:18:08;;;;;;;11.70;5.40;;;;;;;1.85;62.59;101046.65;108067;1257;73011;-62
2023/03/02 03:20:37;;;;;;;12.10;5.80;;;;;;;1.88;62.36;101046.85;108109;1257;73770;-62
2023/03/02 03:23:05;;;;;;;9.90;4.70;;;;;;;1.88;62.06;101049.64;108042;1257;71255;-62
2023/03/02 03:25:34;;;;;;;11.40;4.90;;;;;;;1.87;62.00;101056.27;108031;1257;60152;-62
2023/03/02 03:28:04;;;;;;;12.50;4.70;;;;;;;1.81;61.68;101050.73;107859;1255;59240;-63
2023/03/02 03:30:32;;;;;;;8.80;4.70;;;;;;;1.79;61.69;101046.39;108073;1259;73214;-64
2023/03/02 03:33:01;;;;;;;12.00;5.50;;;;;;;1.78;61.76;101043.02;108078;1256;72961;-63
2023/03/02 03:35:41;;;;;;;11.40;5.10;;;;;;;1.76;61.82;101044.16;108039;1258;72919;-63
2023/03/02 03:38:11;;;;;;;12.10;5.00;;;;;;;1.73;61.72;101047.82;103959;1259;5560850;-64
2023/03/02 03:40:39;;;;;;;10.70;4.90;;;;;;;1.70;61.74;101049.58;108001;1258;73097;-63
2023/03/02 03:43:08;;;;;;;10.80;5.10;;;;;;;1.69;61.58;101050.62;108108;1257;73172;-62
2023/03/02 03:45:37;;;;;;;10.90;5.40;;;;;;;1.67;61.46;101046.58;108060;1256;72260;-63
2023/03/02 03:48:06;;;;;;;12.00;5.30;;;;;;;1.64;61.58;101044.45;107896;1260;60991;-63
2023/03/02 03:50:35;;;;;;;14.20;5.40;;;;;;;1.62;61.54;101044.39;108037;1256;60424;-64
2023/03/02 03:53:03;;;;;;;11.00;5.20;;;;;;;1.59;61.66;101036.98;108156;1257;73955;-64
2023/03/02 03:55:32;;;;;;;13.10;5.50;;;;;;;1.59;61.63;101039.50;108175;1257;70818;-65
2023/03/02 03:58:01;;;;;;;9.90;5.20;;;;;;;1.59;61.63;101037.92;107888;1256;71578;-64
2023/03/02 04:00:30;;;;;;;14.20;6.20;;;;;;;1.58;61.45;101039.40;108107;1258;61443;-64
2023/03/02 04:03:02;;;;;;;;;;;;;;;1.40;61.85;101038.09;108180;1259;59604;-64
2023/03/02 04:05:32;;;;;;;10.20;4.90;;;;;;;0.82;63.15;101036.45;108040;1260;73215;-64
2023/03/02 04:08:02;;;;;;;9.20;4.80;;;;;;;0.73;63.40;101037.55;108079;1257;72910;-64
2023/03/02 04:10:32;;;;;;;11.50;4.90;;;;;;;0.68;63.90;101035.09;107848;1256;72689;-63
2023/03/02 04:13:02;;;;;;;10.90;5.20;;;;;;;0.62;63.87;101033.83;108063;1257;61070;-62
2023/03/02 04:15:32;;;;;;;11.60;5.60;;;;;;;0.61;64.29;101035.06;108051;1256;60594;-63
2023/03/02 04:18:01;;;;;;;9.80;4.90;;;;;;;0.57;64.33;101033.89;108053;1257;72879;-63
2023/03/02 04:20:34;;;;;;;10.80;5.10;;;;;;;0.56;64.63;101034.55;108071;1257;71404;-62
2023/03/02 04:23:03;;;;;;;11.40;4.90;;;;;;;0.56;64.62;101033.38;108021;1260;72212;-62
2023/03/02 04:25:32;;;;;;;12.10;5.10;;;;;;;0.58;64.88;101031.21;107765;1257;61221;-63
2023/03/02 04:28:06;;;;;;;10.10;4.80;;;;;;;0.60;64.78;101033.23;108077;1257;61342;-63
2023/03/02 04:30:42;;;;;;;9.90;4.90;;;;;;;0.61;64.64;101034.34;107902;1260;73205;-63
2023/03/02 04:33:11;;;;;;;10.90;4.80;;;;;;;0.63;64.51;101038.86;107990;1257;72833;-63
2023/03/02 04:35:39;;;;;;;9.40;4.50;;;;;;;0.64;64.77;101034.87;108034;1259;72662;-64
2023/03/02 04:38:08;;;;;;;11.10;5.00;;;;;;;0.63;64.57;101040.27;108012;1255;60791;-63
2023/03/02 04:40:36;;;;;;;8.50;4.30;;;;;;;0.61;64.45;101035.95;107816;1257;60312;-63
2023/03/02 04:43:05;;;;;;;10.30;5.00;;;;;;;0.59;64.33;101039.36;108116;1258;73774;-65
2023/03/02 04:45:36;;;;;;;10.70;4.40;;;;;;;0.56;64.43;101042.48;108079;1257;72833;-64
2023/03/02 04:48:05;;;;;;;10.30;4.80;;;;;;;0.54;64.64;101041.31;108058;1257;72742;-64
2023/03/02 04:50:33;;;;;;;8.20;4.30;;;;;;;0.52;64.67;101045.60;108064;1255;61512;-62
2023/03/02 04:53:02;;;;;;;11.80;4.70;;;;;;;0.50;64.62;101053.55;108070;1258;61540;-63
2023/03/02 04:55:31;;;;;;;9.30;3.80;;;;;;;0.48;64.73;101055.30;108123;1258;73718;-64
2023/03/02 04:57:59;;;;;;;11.50;5.30;;;;;;;0.46;64.84;101056.43;108129;1259;72099;-64
2023/03/02 05:00:28;;;;;;;11.60;4.90;;;;;;;0.46;64.75;101059.38;108055;1257;71762;-64
2023/03/02 05:02:59;;;;;;;12.00;4.50;;;;;;;0.48;64.80;101063.38;108110;1255;60376;-64
2023/03/02 05:05:30;;;;;;;;;;;;;;;0.51;65.01;101063.45;108111;1255;60521;-63
2023/03/02 05:07:59;;;;;;;11.20;4.40;;;;;;;0.54;64.87;101062.70;108096;1259;73620;-63
2023/03/02 05:10:30;;;;;;;8.60;4.10;;;;;;;0.58;64.89;101070.58;108018;1260;73951;-63
2023/03/02 05:13:03;;;;;;;10.50;4.40;;;;;;;0.64;64.92;101073.45;108071;1256;72762;-63
2023/03/02 05:15:34;;;;;;;9.50;4.80;;;;;;;0.69;64.62;101071.67;108047;1257;60671;-63
2023/03/02 05:18:04;;;;;;;10.40;5.00;;;;;;;0.75;64.73;101075.32;107943;1256;60296;-65
2023/03/02 05:20:33;;;;;;;10.30;5.10;;;;;;;0.80;64.94;101075.95;108101;1257;71419;-63
2023/03/02 05:23:05;;;;;;;12.20;4.90;;;;;;;0.84;64.86;101078.73;108089;1259;72367;-64
2023/03/02 05:25:36;;;;;;;10.90;5.10;;;;;;;0.90;64.94;101076.30;108097;1259;71840;-63
2023/03/02 05:28:05;;;;;;;10.70;5.00;;;;;;;0.98;64.98;101080.38;108029;1256;61671;-63
2023/03/02 05:30:36;;;;;;;10.10;5.50;;;;;;;1.05;64.79;101077.86;107982;1257;60499;-63
2023/03/02 05:33:05;;;;;;;11.00;4.80;;;;;;;1.15;64.50;101081.23;107991;1257;73778;-63
2023/03/02 05:35:33;;;;;;;10.30;4.90;;;;;;;1.24;64.31;101081.46;108002;1258;72157;-64
2023/03/02 05:38:02;;;;;;;12.30;5.80;;;;;;;1.28;64.18;101082.61;108049;1257;72208;-64
2023/03/02 05:40:31;;;;;;;11.80;5.30;;;;;;;1.32;64.15;101079.55;108011;1257;62054;-64
2023/03/02 05:42:59;;;;;;;11.80;5.50;;;;;;;1.38;63.96;101077.27;107990;1257;60351;-63
2023/03/02 05:45:30;;;;;;;11.40;5.40;;;;;;;1.45;63.85;101080.29;108085;1257;73873;-63
2023/03/02 05:47:59;;;;;;;10.60;5.40;;;;;;;1.51;63.65;101071.57;108067;1256;72909;-64
2023/03/02 05:50:33;;;;;;;8.50;4.90;;;;;;;1.55;63.59;101073.52;108048;1257;73799;-64
2023/03/02 05:53:02;;;;;;;12.40;5.00;;;;;;;1.59;63.28;101070.42;108063;1259;61439;-64
2023/03/02 05:55:35;;;;;;;13.10;5.30;;;;;;;1.65;63.53;101077.55;108037;1256;61338;-65
2023/03/02 05:58:07;;;;;;;12.00;5.40;;;;;;;1.71;63.27;101079.20;108080;1257;71979;-65
2023/03/02 06:00:39;;;;;;;12.00;5.60;;;;;;;1.75;63.20;101079.34;108041;1257;72695;-64
2023/03/02 06:03:08;;;;;;;12.40;5.20;;;;;;;1.81;63.19;101083.38;108074;1257;73153;-64
2023/03/02 06:05:37;;;;;;;11.80;5.80;;;;;;;1.87;63.13;101084.75;108079;1256;62244;-63
2023/03/02 06:08:05;;;;;;;10.40;5.40;;;;;;;1.95;63.01;101088.38;108039;1256;60284;-64
2023/03/02 06:10:34;;;;;;;12.90;5.60;;;;;;;2.04;63.02;101090.00;107993;1257;72853;-64
2023/03/02 06:13:02;;;;;;;11.90;5.40;;;;;;;2.10;63.12;101082.45;108003;1257;73385;-64
2023/03/02 06:15:35;;;;;;;11.70;6.20;;;;;;;2.17;62.85;101084.41;107982;1257;72642;-65
2023/03/02 06:18:05;;;;;;;14.40;7.20;;;;;;;2.27;62.62;101081.63;107919;1257;61221;-63
2023/03/02 06:20:34;;;;;;;14.30;7.30;;;;;;;2.33;62.55;101083.10;107931;1260;60310;-63
2023/03/02 06:23:02;;;;;;;12.30;5.90;;;;;;;2.42;62.55;101087.36;108018;1256;73083;-63
2023/03/02 06:25:31;;;;;;;11.80;6.00;;;;;;;2.51;62.29;101080.73;107981;1258;73342;-64
2023/03/02 06:28:00;;;;;;;9.70;5.30;;;;;;;2.60;62.19;101084.18;108004;1257;73597;-63
2023/03/02 06:30:28;;;;;;;13.20;6.00;;;;;;;2.68;62.16;101081.95;107964;1256;62176;-64
2023/03/02 06:32:59;;;;;;;11.70;5.80;;;;;;;2.73;61.92;101080.79;107926;1256;60586;-64
2023/03/02 06:35:29;;;;;;;14.80;6.40;;;;;;;2.81;61.80;101083.67;107867;1260;73711;-64
2023/03/02 06:37:57;;;;;;;14.90;7.30;;;;;;;2.88;61.68;101081.02;107894;1256;73735;-64
2023/03/02 06:40:27;;;;;;;13.60;6.70;;;;;;;2.97;61.82;101081.70;107904;1256;73730;-63
2023/03/02 06:42:59;;;;;;;13.30;6.10;;;;;;;3.03;61.63;101084.91;107939;1257;60721;-63
2023/03/02 06:45:32;;;;;;;15.40;6.60;;;;;;;3.10;61.24;101076.91;107912;1257;61388;-63
2023/03/02 06:48:01;;;;;;;10.70;5.80;;;;;;;3.13;61.13;101079.98;107929;1257;72064;-63
2023/03/02 06:50:30;;;;;;;14.30;6.50;;;;;;;3.16;61.09;101084.50;107913;1260;73072;-63
2023/03/02 06:52:58;;;;;;;13.20;6.50;;;;;;;3.21;61.14;101081.64;108037;1257;72577;-63
2023/03/02 06:55:27;;;;;;;12.50;6.80;;;;;;;3.29;61.04;101088.50;108090;1256;61361;-63
2023/03/02 06:57:55;;;;;;;14.00;6.30;;;;;;;3.36;60.94;101087.11;108116;1256;60706;-63
2023/03/02 07:00:26;;;;;;;11.20;5.80;;;;;;;3.43;60.65;101082.31;108111;1257;74208;-63
2023/03/02 07:02:55;;;;;;;13.40;6.10;;;;;;;3.50;60.48;101089.59;107978;1257;71899;-63
2023/03/02 07:05:24;;;;;;;11.50;6.10;;;;;;;3.55;60.09;101089.02;107950;1257;71895;-64
2023/03/02 07:07:53;;;;;;;13.10;5.90;;;;;;;3.57;59.92;101084.77;108042;1257;61915;-65
2023/03/02 07:10:22;;;;;;;12.50;6.20;;;;;;;3.61;59.81;101091.07;108096;1256;60459;-63
2023/03/02 07:12:53;;;;;;;10.80;5.20;;;;;;;3.66;59.61;101086.43;108146;1257;75207;-63
2023/03/02 07:15:26;;;;;;;13.80;6.80;;;;;;;3.71;59.54;101090.10;108105;1257;72523;-63
2023/03/02 07:17:56;;;;;;;13.10;6.20;;;;;;;3.79;59.38;101087.39;108150;1257;71997;-64
2023/03/02 07:20:25;;;;;;;13.00;6.40;;;;;;;3.88;59.30;101083.53;107967;1255;60466;-63
2023/03/02 07:22:54;;;;;;;13.20;6.30;;;;;;;3.99;59.19;101079.68;108136;1257;60334;-63
2023/03/02 07:25:23;;;;;;;13.80;5.80;;;;;;;4.10;58.73;101077.30;108060;1257;74065;-65
2023/03/02 07:27:55;;;;;;;13.00;6.30;;;;;;;4.13;58.13;101076.41;108098;1256;73006;-63
2023/03/02 07:30:24;;;;;;;12.10;6.40;;;;;;;4.15;57.93;101072.83;108058;1257;73060;-63
2023/03/02 07:32:53;;;;;;;13.20;6.70;;;;;;;4.20;57.86;101069.18;108082;1257;60316;-65
2023/03/02 07:35:22;;;;;;;11.90;6.60;;;;;;;4.27;57.69;101068.70;108149;1257;61544;-64
2023/03/02 07:37:51;;;;;;;12.90;6.50;;;;;;;4.34;57.34;101065.70;108092;1257;73912;-63
2023/03/02 07:40:19;;;;;;;12.40;6.20;;;;;;;4.38;57.01;101069.02;108088;1257;73802;-63
2023/03/02 07:42:48;;;;;;;15.20;6.10;;;;;;;4.46;57.11;101066.06;108036;1257;73069;-64
2023/03/02 07:45:20;;;;;;;11.50;5.80;;;;;;;4.54;57.07;101064.46;108046;1260;60950;-63
2023/03/02 07:47:49;;;;;;;14.50;6.00;;;;;;;4.63;56.63;101058.89;108088;1255;60434;-63
2023/03/02 07:50:18;;;;;;;13.40;6.40;;;;;;;4.68;56.29;101057.25;108121;1256;73898;-65
2023/03/02 07:52:47;;;;;;;12.00;6.50;;;;;;;4.72;55.90;101057.98;108149;1256;73022;-64
2023/03/02 07:55:16;;;;;;;11.60;6.20;;;;;;;4.78;55.93;101059.55;108100;1257;72950;-64
2023/03/02 07:57:45;;;;;;;16.10;6.70;;;;;;;4.86;55.87;101051.84;108078;1256;61552;-68
2023/03/02 08:00:14;;;;;;;16.70;7.60;;;;;;;4.97;55.69;101051.82;108067;1256;60325;-64
2023/03/02 08:02:43;;;;;;;13.40;6.50;;;;;;;5.08;55.48;101044.87;108113;1257;73737;-64
2023/03/02 08:05:12;;;;;;;11.40;5.70;;;;;;;5.14;54.89;101039.18;108074;1255;70684;-65
2023/03/02 08:07:41;;;;;;;14.50;6.10;;;;;;;5.21;54.83;101038.43;108111;1257;72156;-65
2023/03/02 08:10:10;;;;;;;11.80;5.90;;;;;;;5.30;54.42;101037.37;108112;1255;60323;-64
2023/03/02 08:12:41;;;;;;;11.20;5.70;;;;;;;5.41;54.11;101034.36;108087;1257;60408;-64
2023/03/02 08:15:11;;;;;;;13.70;5.90;;;;;;;5.57;53.43;101028.41;108106;1259;74830;-65
2023/03/02 08:17:39;;;;;;;14.20;5.80;;;;;;;5.64;53.33;101023.51;108103;1257;72598;-64
2023/03/02 08:20:14;;;;;;;11.30;5.50;;;;;;;5.73;53.11;101024.28;108078;1255;73794;-64
2023/03/02 08:22:42;;;;;;;11.30;5.30;;;;;;;5.76;52.60;101019.97;108167;1257;60465;-63
2023/03/02 08:25:11;;;;;;;14.10;6.20;;;;;;;5.80;52.23;101025.86;108062;1256;60271;-65
2023/03/02 08:27:42;;;;;;;10.80;6.10;;;;;;;5.86;52.22;101027.50;108104;1257;74901;-64
2023/03/02 08:30:12;;;;;;;11.00;5.50;;;;;;;5.95;52.33;101025.30;108115;1257;74303;-64
2023/03/02 08:32:41;;;;;;;15.90;5.90;;;;;;;6.03;52.34;101022.73;108133;1255;70890;-65
2023/03/02 08:35:09;;;;;;;11.40;5.30;;;;;;;6.12;51.87;101024.79;107983;1256;60323;-65
2023/03/02 08:37:40;;;;;;;13.20;5.90;;;;;;;6.18;51.60;101018.33;107887;1256;60461;-66
2023/03/02 08:40:10;;;;;;;11.30;5.60;;;;;;;6.20;51.38;101016.31;107940;1256;73263;-64
2023/03/02 08:42:39;;;;;;;13.80;5.90;;;;;;;6.23;51.38;101015.70;107893;1257;72130;-64
2023/03/02 08:45:12;;;;;;;11.90;5.00;;;;;;;6.29;50.89;101015.55;107913;1256;71691;-64
2023/03/02 08:47:41;;;;;;;9.60;5.30;;;;;;;6.37;50.48;101013.88;108118;1257;60198;-63
2023/03/02 08:50:10;;;;;;;12.60;5.80;;;;;;;6.46;50.24;101014.66;108091;1257;60434;-63
2023/03/02 08:52:39;;;;;;;13.80;6.00;;;;;;;6.54;50.01;101016.76;108004;1256;74818;-65
2023/03/02 08:55:36;;;;;;;9.20;5.30;;;;;;;6.63;49.96;101016.75;108054;1256;73989;-64
2023/03/02 08:58:04;;;;;;;13.50;6.00;;;;;;;6.67;49.66;101015.06;108016;1257;75327;-63
2023/03/02 09:00:34;;;;;;;13.70;6.30;;;;;;;6.71;49.72;101009.72;108024;1256;60428;-64
2023/03/02 09:03:03;;;;;;;12.20;5.70;;;;;;;6.75;49.74;101010.42;108099;1257;61249;-64
2023/03/02 09:05:31;;;;;;;10.00;4.90;;;;;;;6.74;49.93;101002.90;108081;1257;74073;-64
2023/03/02 09:08:02;;;;;;;9.80;4.80;;;;;;;6.83;49.57;101006.94;108093;1257;71954;-64
2023/03/02 09:10:31;;;;;;;9.80;5.20;;;;;;;7.01;48.83;101004.38;107965;1260;70244;-64
2023/03/02 09:13:00;;;;;;;11.30;5.60;;;;;;;7.08;48.58;101004.04;108084;1257;60325;-63
2023/03/02 09:15:28;;;;;;;9.90;5.00;;;;;;;7.00;48.42;101000.33;108053;1256;60761;-63
2023/03/02 09:18:00;;;;;;;11.10;5.80;;;;;;;7.04;47.86;100998.41;108130;1257;75072;-64
2023/03/02 09:20:28;;;;;;;10.80;4.80;;;;;;;7.05;47.90;100998.96;108144;1257;73374;-64
2023/03/02 09:22:57;;;;;;;12.00;5.50;;;;;;;7.13;48.10;101000.95;108133;1256;73903;-64
2023/03/02 09:25:25;;;;;;;10.80;5.30;;;;;;;7.23;48.14;101000.55;108060;1258;60903;-64
2023/03/02 09:27:54;;;;;;;10.90;4.50;;;;;;;7.33;47.73;101000.63;108107;1257;60265;-63
2023/03/02 09:30:23;;;;;;;11.10;5.30;;;;;;;7.41;47.59;100999.59;108105;1256;74612;-64
2023/03/02 09:32:54;;;;;;;12.20;5.00;;;;;;;7.46;47.23;100998.70;107953;1257;72181;-64
2023/03/02 09:35:22;;;;;;;9.70;4.50;;;;;;;7.50;46.84;100991.86;108023;1256;73591;-64
2023/03/02 09:37:51;;;;;;;9.60;4.50;;;;;;;7.59;46.69;101001.23;108069;1257;60444;-65
2023/03/02 09:40:25;;;;;;;11.10;5.00;;;;;;;7.74;46.11;101000.46;108062;1255;60885;-64
2023/03/02 09:43:09;;;;;;;9.00;4.60;;;;;;;7.79;45.73;100995.45;108066;1257;73151;-65
2023/03/02 09:45:49;;;;;;;8.60;4.30;;;;;;;7.84;45.62;100995.95;108077;1257;72942;-64
2023/03/02 09:48:19;;;;;;;;;;;;;;;7.93;45.38;100996.26;108091;1257;71422;-64
2023/03/02 09:51:11;;;;;;;8.30;4.10;;;;;;;7.96;44.64;100993.30;108056;1256;60360;-63
2023/03/02 09:53:46;;;;;;;7.50;3.40;;;;;;;7.84;44.70;100992.35;107989;1256;60434;-64
2023/03/02 09:56:18;;;;;;;7.80;3.70;;;;;;;7.82;43.97;100996.23;107994;1256;72608;-65
2023/03/02 09:59:01;;;;;;;8.10;3.30;;;;;;;7.83;43.90;100994.03;108018;1260;73043;-65
2023/03/02 10:01:39;;;;;;;8.80;3.20;;;;;;;7.84;43.29;100990.80;108068;1257;72950;-64
2023/03/02 10:04:23;;;;;;;8.50;4.00;;;;;;;7.89;43.50;100991.09;107977;1257;60457;-63
2023/03/02 10:06:55;;;;;;;7.90;3.80;;;;;;;8.00;43.65;100979.48;107966;1256;61548;-64
2023/03/02 10:09:23;;;;;;;9.10;3.90;;;;;;;8.10;43.38;100988.63;108103;1256;74539;-66
2023/03/02 10:12:27;;;;;;;6.80;3.40;;;;;;;8.17;43.12;100979.21;107780;1257;73936;-64
2023/03/02 10:15:02;;;;;;;6.60;3.10;;;;;;;8.27;43.39;100980.77;107948;1257;72495;-64
2023/03/02 10:17:55;;;;;;;8.00;3.30;;;;;;;8.33;42.36;100974.90;107824;1256;59362;-68
2023/03/02 10:20:31;;;;;;;7.90;3.50;;;;;;;8.40;42.54;100976.19;107834;1258;60545;-64
2023/03/02 10:23:09;;;;;;;9.50;4.00;;;;;;;8.50;42.57;100978.76;107830;1256;73171;-63
2023/03/02 10:25:47;;;;;;;7.60;3.60;;;;;;;8.53;42.05;100975.38;107828;1256;73124;-64
2023/03/02 10:28:20;;;;;;;5.90;3.00;;;;;;;8.57;41.94;100974.65;107837;1256;72034;-65
2023/03/02 10:30:57;;;;;;;7.50;2.80;;;;;;;8.59;40.91;100974.01;107902;1256;60552;-64
2023/03/02 10:33:26;;;;;;;7.30;3.10;;;;;;;8.62;40.90;100971.95;108105;1255;60620;-63
2023/03/02 10:35:54;;;;;;;8.50;3.70;;;;;;;8.67;40.85;100969.75;107870;1257;74109;-63
2023/03/02 10:38:23;;;;;;;7.60;3.40;;;;;;;8.70;40.52;100962.86;108106;1257;73020;-63
2023/03/02 10:40:58;;;;;;;6.20;2.90;;;;;;;8.75;40.38;100965.67;108068;1256;72052;-64
2023/03/02 10:43:34;;;;;;;6.80;2.80;;;;;;;8.82;40.20;100959.75;108081;1257;60383;-63
2023/03/02 10:46:08;;;;;;;7.10;3.00;;;;;;;8.89;40.31;100959.09;108076;1257;61539;-64
2023/03/02 10:48:46;;;;;;;6.80;3.00;;;;;;;8.99;40.04;100951.59;108070;1256;74513;-64
2023/03/02 10:51:31;;;;;;;7.70;3.30;;;;;;;9.04;39.65;100953.69;108010;1256;72951;-62
2023/03/02 10:54:04;;;;;;;7.10;3.30;;;;;;;9.07;39.54;100952.82;108096;1257;72021;-63
2023/03/02 10:56:33;;;;;;;7.00;2.70;;;;;;;9.08;39.06;100947.48;108138;1257;60324;-64
2023/03/02 10:59:27;;;;;;;7.20;3.30;;;;;;;9.08;38.63;100945.99;108125;1257;60315;-65
2023/03/02 11:02:01;;;;;;;6.40;3.00;;;;;;;9.10;39.28;100942.66;108092;1256;73850;-64
2023/03/02 11:04:32;;;;;;;7.90;3.30;;;;;;;9.10;39.33;100948.75;107989;1256;71732;-64
2023/03/02 11:07:14;;;;;;;6.70;3.20;;;;;;;9.10;39.08;100938.48;108017;1255;73058;-63
2023/03/02 11:10:00;;;;;;;6.60;3.00;;;;;;;9.15;39.43;100943.91;108047;1257;60417;-63
2023/03/02 11:12:29;;;;;;;6.90;3.30;;;;;;;9.22;38.93;100933.92;108107;1256;60315;-65
2023/03/02 11:15:15;;;;;;;6.70;3.30;;;;;;;9.26;38.73;100933.73;108118;1257;73959;-64
2023/03/02 11:17:45;;;;;;;7.10;3.40;;;;;;;9.25;39.06;100935.23;108124;1256;73075;-64
2023/03/02 11:20:22;;;;;;;8.30;4.10;;;;;;;9.28;39.64;100940.00;108129;1256;71088;-65
2023/03/02 11:22:59;;;;;;;8.00;3.90;;;;;;;9.30;39.65;100939.73;108119;1257;60437;-64
2023/03/02 11:25:38;;;;;;;9.30;4.20;;;;;;;9.33;39.84;100927.73;107934;1256;60665;-63
2023/03/02 11:28:33;;;;;;;7.40;3.50;;;;;;;9.39;39.96;100935.04;108179;1256;73984;-65
2023/03/02 11:31:03;;;;;;;9.20;4.30;;;;;;;9.39;39.77;100930.88;107861;1257;72771;-65
2023/03/02 11:33:38;;;;;;;10.30;3.90;;;;;;;9.35;39.94;100935.08;108103;1256;72746;-66
2023/03/02 11:36:15;;;;;;;11.40;4.50;;;;;;;9.25;39.87;100929.83;107641;1256;60424;-66
2023/03/02 11:38:49;;;;;;;6.90;3.90;;;;;;;9.19;40.24;100923.75;108120;1256;60383;-65
2023/03/02 11:41:28;;;;;;;7.60;3.80;;;;;;;9.18;40.47;100928.89;108048;1259;73877;-64
2023/03/02 11:44:08;;;;;;;7.00;3.60;;;;;;;9.53;39.52;100921.28;108076;1257;71092;-63
2023/03/02 11:46:36;;;;;;;7.90;3.80;;;;;;;9.92;38.49;100921.71;108072;1258;71995;-63
2023/03/02 11:49:10;;;;;;;9.80;3.70;;;;;;;9.48;38.82;100922.98;108067;1257;60251;-63
2023/03/02 11:51:41;;;;;;;8.20;3.40;;;;;;;9.49;38.97;100926.14;108069;1259;61002;-64
2023/03/02 11:54:40;;;;;;;6.70;3.50;;;;;;;9.51;38.81;100916.48;108069;1257;75599;-64
2023/03/02 11:57:34;;;;;;;6.40;3.50;;;;;;;9.54;38.71;100920.21;107848;1256;72417;-64
2023/03/02 12:00:10;;;;;;;7.70;3.30;;;;;;;9.51;38.33;100918.83;107998;1256;72723;-63
2023/03/02 12:02:39;;;;;;;6.00;3.20;;;;;;;9.44;38.44;100910.75;108074;1256;60379;-64
2023/03/02 12:05:23;;;;;;;7.10;3.40;;;;;;;9.45;38.22;100913.00;108080;1256;60252;-64
2023/03/02 12:08:04;;;;;;;7.00;3.60;;;;;;;9.54;38.56;100907.58;107874;1257;74055;-64
2023/03/02 12:10:38;;;;;;;8.10;3.90;;;;;;;9.62;38.46;100916.50;107851;1257;73831;-63
2023/03/02 12:13:14;;;;;;;7.90;3.70;;;;;;;9.60;38.24;100909.73;108069;1256;73688;-65
2023/03/02 12:15:44;;;;;;;7.50;3.80;;;;;;;9.58;38.31;100905.87;107974;1256;60450;-65
2023/03/02 12:18:25;;;;;;;7.10;3.20;;;;;;;9.58;38.48;100906.66;108078;1257;61352;-64